Time;durP1;ratioP1;P1;durP2;ratioP2;P2;SDS_P1;SDS_P2;PMS_P1;PMS_P2;Temp;Humidity;BMP_temperature;BMP_pressure;BME280_temperature;BME280_humidity;BME280_pressure;Samples;Min_cycle;Max_cycle;Signal;HPM_P1;HPM_P2
2022/04/21 00:00:17;;;;;;;0.00;0.00;;;11.60;49.40;;;;;;4149337;28;20066;-72
2022/04/21 00:02:40;;;;;;;0.00;0.00;;;11.50;49.70;;;;;;4163413;28;20034;-72
2022/04/21 00:05:09;;;;;;;0.00;0.00;;;11.50;49.40;;;;;;4162901;28;20057;-70
2022/04/21 00:07:33;;;;;;;0.00;0.00;;;11.80;49.00;;;;;;4136139;28;20046;-72
2022/04/21 00:10:08;;;;;;;0.00;0.00;;;11.90;48.90;;;;;;4164030;28;20049;-72
2022/04/21 00:12:36;;;;;;;0.00;0.00;;;11.90;49.30;;;;;;4163972;28;20047;-71
2022/04/21 00:15:07;;;;;;;0.00;0.00;;;11.80;49.80;;;;;;4166817;28;20063;-69
2022/04/21 00:17:30;;;;;;;0.00;0.00;;;11.90;49.80;;;;;;4167093;28;20045;-70
2022/04/21 00:19:53;;;;;;;0.00;0.00;;;11.90;49.70;;;;;;4166907;28;20346;-69
2022/04/21 00:24:58;;;;;;;0.00;0.00;;;12.00;49.40;;;;;;4166664;28;20103;-70
2022/04/21 00:27:25;;;;;;;0.00;0.00;;;11.90;49.10;;;;;;4166116;28;20038;-72
2022/04/21 00:29:55;;;;;;;0.00;0.00;;;11.90;48.90;;;;;;4166195;28;20575;-70
2022/04/21 00:32:20;;;;;;;0.00;0.00;;;11.80;49.00;;;;;;4166808;28;20073;-73
2022/04/21 00:34:42;;;;;;;0.00;0.00;;;11.60;49.20;;;;;;4166665;28;20087;-71
2022/04/21 00:37:17;;;;;;;0.00;0.00;;;11.60;49.50;;;;;;4166823;28;20050;-71
2022/04/21 00:39:50;;;;;;;0.00;0.00;;;11.70;49.40;;;;;;4165897;28;20049;-74
2022/04/21 00:42:24;;;;;;;0.00;0.00;;;11.90;49.30;;;;;;4166662;28;20077;-70
2022/04/21 00:44:56;;;;;;;0.00;0.00;;;11.90;49.40;;;;;;4165574;28;20145;-71
2022/04/21 00:47:21;;;;;;;0.00;0.00;;;12.00;49.60;;;;;;4152270;28;20041;-70
2022/04/21 00:49:46;;;;;;;0.00;0.00;;;12.00;49.90;;;;;;4165823;28;20087;-70
2022/04/21 00:52:13;;;;;;;0.00;0.00;;;12.10;50.30;;;;;;4166186;28;20041;-71
2022/04/21 00:54:44;;;;;;;;;;;12.00;50.40;;;;;;4166881;28;20042;-70
2022/04/21 00:57:16;;;;;;;0.00;0.00;;;12.10;50.40;;;;;;4166529;28;20314;-70
2022/04/21 00:59:51;;;;;;;0.00;0.00;;;11.90;50.50;;;;;;4153565;28;20077;-69
2022/04/21 01:05:28;;;;;;;0.00;0.00;;;11.80;50.80;;;;;;4166120;28;20070;-72
2022/04/21 01:08:05;;;;;;;0.00;0.00;;;11.50;50.80;;;;;;4166364;28;20053;-69
2022/04/21 01:10:47;;;;;;;0.00;0.00;;;11.30;51.10;;;;;;4153679;28;20076;-71
2022/04/21 01:13:21;;;;;;;0.00;0.00;;;11.30;51.00;;;;;;4165383;28;20499;-73
2022/04/21 01:15:51;;;;;;;0.00;0.00;;;11.30;51.00;;;;;;4152189;28;20132;-69
2022/04/21 01:18:29;;;;;;;0.00;0.00;;;11.30;51.20;;;;;;4166124;28;20050;-70
2022/04/21 01:20:56;;;;;;;0.00;0.00;;;11.30;51.50;;;;;;4165127;28;20045;-69
2022/04/21 01:23:20;;;;;;;0.00;0.00;;;11.30;51.70;;;;;;4166858;28;20068;-68
2022/04/21 01:25:47;;;;;;;0.00;0.00;;;11.30;51.60;;;;;;4151090;28;20053;-71
2022/04/21 01:28:13;;;;;;;0.00;0.00;;;11.30;51.50;;;;;;4165213;28;20073;-71
2022/04/21 01:30:48;;;;;;;0.00;0.00;;;11.30;51.50;;;;;;4165616;28;20065;-69
2022/04/21 01:33:25;;;;;;;0.00;0.00;;;11.30;51.70;;;;;;4153290;28;20041;-72
2022/04/21 01:35:48;;;;;;;0.00;0.00;;;11.40;51.60;;;;;;4144734;28;20041;-69
2022/04/21 01:41:11;;;;;;;0.00;0.00;;;11.50;51.80;;;;;;4151069;28;20740;-70
2022/04/21 01:43:34;;;;;;;0.00;0.00;;;11.50;52.00;;;;;;4138154;28;20548;-71
2022/04/21 01:45:56;;;;;;;0.00;0.00;;;11.50;52.30;;;;;;4151369;28;20124;-70
2022/04/21 01:48:18;;;;;;;0.00;0.00;;;11.40;52.40;;;;;;4165317;28;20061;-70
2022/04/21 01:50:40;;;;;;;0.00;0.00;;;11.40;52.70;;;;;;4164608;28;20049;-68
2022/04/21 01:53:02;;;;;;;0.00;0.00;;;11.50;53.00;;;;;;4151160;28;20045;-72
2022/04/21 01:55:25;;;;;;;0.00;0.00;;;11.50;53.30;;;;;;4151410;28;20496;-70
2022/04/21 01:57:49;;;;;;;0.00;0.00;;;11.50;53.50;;;;;;4164662;28;20034;-68
2022/04/21 02:00:16;;;;;;;0.00;0.00;;;11.40;53.20;;;;;;4164567;28;20132;-73
2022/04/21 02:02:39;;;;;;;0.00;0.00;;;11.40;53.30;;;;;;4164801;28;20041;-74
2022/04/21 02:05:04;;;;;;;0.00;0.00;;;11.40;53.40;;;;;;4123624;28;20038;-71
2022/04/21 02:07:27;;;;;;;0.00;0.00;;;11.50;53.40;;;;;;4164778;28;20041;-72
2022/04/21 02:09:49;;;;;;;0.00;0.00;;;11.50;53.40;;;;;;4150810;28;20042;-73
2022/04/21 02:12:12;;;;;;;0.00;0.00;;;11.50;53.30;;;;;;4137653;28;20045;-68
2022/04/21 02:14:37;;;;;;;0.00;0.00;;;11.40;53.20;;;;;;4150806;28;20046;-68
2022/04/21 02:17:00;;;;;;;0.00;0.00;;;11.40;53.00;;;;;;4163949;28;20076;-69
2022/04/21 02:19:22;;;;;;;0.00;0.00;;;11.40;52.70;;;;;;4150783;28;20046;-69
2022/04/21 02:21:44;;;;;;;0.00;0.00;;;11.30;52.50;;;;;;4150589;28;20061;-70
2022/04/21 02:24:09;;;;;;;0.00;0.00;;;11.20;52.60;;;;;;4164399;28;20053;-71
2022/04/21 02:26:33;;;;;;;0.00;0.00;;;11.10;52.70;;;;;;4150628;28;20080;-75
2022/04/21 02:29:00;;;;;;;0.00;0.00;;;11.00;52.70;;;;;;4150329;28;20448;-73
2022/04/21 02:31:27;;;;;;;0.00;0.00;;;11.00;52.70;;;;;;4150329;28;20092;-68
2022/04/21 02:33:51;;;;;;;0.00;0.00;;;11.00;52.70;;;;;;4150784;28;20125;-70
2022/04/21 02:36:13;;;;;;;0.00;0.00;;;11.00;52.80;;;;;;4150303;28;20380;-69
2022/04/21 02:38:35;;;;;;;0.00;0.00;;;10.90;52.60;;;;;;4150500;28;20174;-71
2022/04/21 02:41:00;;;;;;;0.00;0.00;;;10.90;52.50;;;;;;4163717;28;20080;-69
2022/04/21 02:43:24;;;;;;;0.00;0.00;;;10.90;52.60;;;;;;4163866;28;20038;-69
2022/04/21 02:45:49;;;;;;;0.00;0.00;;;11.00;52.50;;;;;;4139798;28;20056;-70
2022/04/21 02:48:12;;;;;;;0.00;0.00;;;11.00;52.30;;;;;;4150344;28;20037;-74
2022/04/21 02:50:40;;;;;;;0.00;0.00;;;11.00;52.30;;;;;;4136464;28;20580;-73
2022/04/21 02:53:02;;;;;;;0.00;0.00;;;11.00;52.40;;;;;;4163297;28;20057;-69
2022/04/21 02:58:19;;;;;;;0.00;0.00;;;11.10;52.30;;;;;;4163740;28;20052;-69
2022/04/21 03:00:44;;;;;;;0.00;0.00;;;11.10;52.50;;;;;;4149930;28;20053;-70
2022/04/21 03:03:11;;;;;;;0.00;0.00;;;11.10;53.30;;;;;;4163781;28;20065;-72
2022/04/21 03:05:33;;;;;;;0.00;0.00;;;11.10;53.30;;;;;;4150135;28;20076;-71
2022/04/21 03:07:57;;;;;;;0.00;0.00;;;11.00;53.00;;;;;;4123336;28;20050;-71
2022/04/21 03:10:22;;;;;;;0.00;0.00;;;11.00;53.50;;;;;;4136934;28;20123;-69
2022/04/21 03:12:46;;;;;;;0.00;0.00;;;10.90;53.90;;;;;;4149509;28;20449;-68
2022/04/21 03:15:11;;;;;;;0.00;0.00;;;10.90;54.00;;;;;;4163737;28;20056;-72
2022/04/21 03:17:33;;;;;;;0.00;0.00;;;10.80;54.10;;;;;;4163806;28;20103;-71
2022/04/21 03:19:59;;;;;;;0.00;0.00;;;10.80;54.40;;;;;;4150509;28;20053;-71
2022/04/21 03:25:07;;;;;;;0.00;0.00;;;10.70;55.20;;;;;;4149621;28;20470;-70
2022/04/21 03:27:32;;;;;;;0.00;0.00;;;10.70;55.60;;;;;;4163534;28;20491;-73
2022/04/21 03:29:56;;;;;;;0.00;0.00;;;10.70;55.80;;;;;;4136060;28;20046;-71
2022/04/21 03:32:18;;;;;;;0.00;0.00;;;10.70;56.40;;;;;;4149970;28;20049;-70
2022/04/21 03:34:43;;;;;;;0.00;0.00;;;10.70;56.70;;;;;;4163120;28;20045;-67
2022/04/21 03:37:09;;;;;;;0.00;0.00;;;10.60;56.80;;;;;;4163535;28;20065;-70
2022/04/21 03:39:34;;;;;;;0.00;0.00;;;10.50;57.00;;;;;;4150224;28;20440;-70
2022/04/21 03:41:57;;;;;;;0.00;0.00;;;10.30;57.30;;;;;;4150427;28;20073;-72
2022/04/21 03:44:25;;;;;;;0.00;0.00;;;10.20;57.20;;;;;;4149601;28;20108;-69
2022/04/21 03:46:49;;;;;;;0.00;0.00;;;10.10;56.90;;;;;;4149325;28;20046;-70
2022/04/21 03:49:13;;;;;;;0.00;0.00;;;10.10;56.80;;;;;;4165720;28;20041;-74
2022/04/21 03:51:35;;;;;;;0.00;0.00;;;10.20;56.60;;;;;;4166787;28;20041;-71
2022/04/21 03:53:59;;;;;;;0.00;0.00;;;10.20;56.30;;;;;;4166630;28;20056;-70
2022/04/21 03:56:21;;;;;;;0.00;0.00;;;10.10;55.90;;;;;;4152839;28;20052;-69
2022/04/21 03:58:47;;;;;;;0.00;0.00;;;10.10;55.80;;;;;;4166242;28;20054;-72
2022/04/21 04:01:11;;;;;;;0.00;0.00;;;10.00;55.50;;;;;;4137456;28;20440;-71
2022/04/21 04:03:34;;;;;;;0.00;0.00;;;9.90;55.40;;;;;;4137165;28;20099;-70
2022/04/21 04:05:56;;;;;;;0.00;0.00;;;9.90;55.40;;;;;;4150630;28;20034;-71
2022/04/21 04:10:59;;;;;;;0.00;0.00;;;9.90;55.80;;;;;;4136394;28;20149;-70
2022/04/21 04:13:24;;;;;;;0.00;0.00;;;9.90;55.00;;;;;;4123508;28;20043;-70
2022/04/21 04:15:51;;;;;;;0.00;0.00;;;10.00;55.00;;;;;;4123344;28;20082;-69
2022/04/21 04:18:16;;;;;;;0.00;0.00;;;10.00;54.90;;;;;;4136822;28;20073;-71
2022/04/21 04:20:38;;;;;;;0.00;0.00;;;10.10;54.80;;;;;;4150451;28;20112;-71
2022/04/21 04:23:00;;;;;;;0.00;0.00;;;10.10;54.80;;;;;;4123242;28;20074;-69
2022/04/21 04:25:22;;;;;;;0.00;0.00;;;10.00;54.80;;;;;;4136964;28;20469;-67
2022/04/21 04:27:44;;;;;;;0.00;0.00;;;10.00;55.10;;;;;;4150358;28;20046;-70
2022/04/21 04:30:08;;;;;;;0.00;0.00;;;10.10;55.10;;;;;;4136919;28;20112;-69
2022/04/21 04:32:32;;;;;;;0.00;0.00;;;10.20;55.20;;;;;;4136568;28;20056;-71
2022/04/21 04:34:54;;;;;;;0.00;0.00;;;10.10;55.60;;;;;;4135980;28;20133;-70
2022/04/21 04:37:16;;;;;;;0.00;0.00;;;10.00;55.80;;;;;;4122842;28;20117;-71
2022/04/21 04:39:43;;;;;;;0.00;0.00;;;10.00;55.90;;;;;;4136427;28;20050;-71
2022/04/21 04:42:16;;;;;;;0.00;0.00;;;10.10;56.20;;;;;;4122937;28;20057;-71
2022/04/21 04:44:38;;;;;;;0.00;0.00;;;10.10;56.40;;;;;;4136543;28;20710;-71
2022/04/21 04:47:02;;;;;;;0.00;0.00;;;10.10;56.60;;;;;;4136118;28;20097;-69
2022/04/21 04:49:24;;;;;;;0.00;0.00;;;10.10;57.00;;;;;;4136311;28;20046;-71
2022/04/21 04:51:49;;;;;;;0.00;0.00;;;10.10;57.40;;;;;;4136365;28;20077;-71
2022/04/21 04:54:14;;;;;;;0.00;0.00;;;10.20;57.60;;;;;;4123365;28;20112;-71
2022/04/21 04:56:37;;;;;;;0.00;0.00;;;10.20;57.90;;;;;;4122811;28;20113;-71
2022/04/21 04:59:05;;;;;;;0.00;0.00;;;10.20;58.20;;;;;;4122061;28;20051;-73
2022/04/21 05:01:30;;;;;;;0.00;0.00;;;10.20;58.80;;;;;;4138370;28;20085;-70
2022/04/21 05:04:00;;;;;;;0.00;0.00;;;10.10;59.20;;;;;;4138863;28;20062;-70
2022/04/21 05:06:24;;;;;;;0.00;0.00;;;10.10;59.10;;;;;;4152409;28;20049;-71
2022/04/21 05:08:46;;;;;;;0.00;0.00;;;10.10;59.10;;;;;;4138323;28;20050;-70
2022/04/21 05:11:13;;;;;;;0.00;0.00;;;10.30;59.00;;;;;;4138964;28;20133;-70
2022/04/21 05:13:37;;;;;;;0.00;0.00;;;10.30;59.10;;;;;;4152253;28;20045;-69
2022/04/21 05:16:05;;;;;;;0.00;0.00;;;10.40;59.40;;;;;;4152211;28;20511;-70
2022/04/21 05:18:27;;;;;;;0.00;0.00;;;10.30;59.40;;;;;;4152176;28;20121;-72
2022/04/21 05:20:52;;;;;;;0.00;0.00;;;10.30;59.40;;;;;;4138801;28;20049;-71
2022/04/21 05:23:20;;;;;;;0.00;0.00;;;10.40;59.30;;;;;;4152154;28;20458;-71
2022/04/21 05:25:45;;;;;;;0.00;0.00;;;10.50;59.80;;;;;;4152131;28;20077;-70
2022/04/21 05:28:10;;;;;;;0.00;0.00;;;10.70;60.00;;;;;;4111401;28;20050;-69
2022/04/21 05:33:22;;;;;;;0.00;0.00;;;10.70;60.50;;;;;;4165453;28;20037;-72
2022/04/21 05:35:44;;;;;;;0.00;0.00;;;10.80;60.40;;;;;;4151764;28;20137;-71
2022/04/21 05:38:09;;;;;;;0.00;0.00;;;10.80;59.70;;;;;;4151964;28;20038;-70
2022/04/21 05:40:36;;;;;;;0.00;0.00;;;10.70;58.30;;;;;;4138598;28;20046;-70
2022/04/21 05:43:08;;;;;;;0.00;0.00;;;10.60;57.80;;;;;;4151364;28;20382;-71
2022/04/21 05:45:30;;;;;;;0.00;0.00;;;10.60;57.30;;;;;;4139029;28;20552;-71
2022/04/21 05:47:55;;;;;;;0.00;0.00;;;10.60;56.90;;;;;;4152519;28;20093;-69
2022/04/21 05:50:20;;;;;;;0.00;0.00;;;10.70;56.50;;;;;;4152551;28;20050;-71
2022/04/21 05:52:45;;;;;;;0.00;0.00;;;10.80;56.30;;;;;;4152752;28;20045;-72
2022/04/21 05:55:08;;;;;;;0.00;0.00;;;10.90;55.90;;;;;;4152792;28;20057;-72
2022/04/21 05:57:38;;;;;;;0.00;0.00;;;10.90;55.60;;;;;;4152804;28;20042;-71
2022/04/21 06:00:00;;;;;;;0.00;0.00;;;11.00;55.50;;;;;;4153618;28;20088;-71
2022/04/21 06:02:24;;;;;;;0.00;0.00;;;11.10;55.40;;;;;;4158816;28;20045;-71
2022/04/21 06:04:46;;;;;;;0.00;0.00;;;11.30;55.10;;;;;;4155160;28;20060;-71
2022/04/21 06:07:11;;;;;;;0.00;0.00;;;11.50;54.80;;;;;;4156112;28;20148;-72
2022/04/21 06:09:35;;;;;;;0.00;0.00;;;11.60;54.30;;;;;;4141730;28;20078;-72
2022/04/21 06:12:03;;;;;;;0.00;0.00;;;11.70;54.00;;;;;;4155824;28;20106;-69
2022/04/21 06:14:26;;;;;;;0.00;0.00;;;11.70;53.80;;;;;;4144394;28;20554;-69
2022/04/21 06:16:50;;;;;;;0.00;0.00;;;11.80;53.90;;;;;;4138844;28;20046;-70
2022/04/21 06:19:12;;;;;;;0.00;0.00;;;12.00;53.90;;;;;;4138975;28;20548;-69
2022/04/21 06:21:35;;;;;;;0.00;0.00;;;12.10;53.40;;;;;;4139021;28;20053;-70
2022/04/21 06:23:59;;;;;;;0.00;0.00;;;12.10;53.30;;;;;;4139667;28;20520;-72
2022/04/21 06:26:25;;;;;;;0.00;0.00;;;12.30;53.00;;;;;;4152157;28;20123;-72
2022/04/21 06:28:54;;;;;;;0.00;0.00;;;12.40;52.40;;;;;;4138812;28;20173;-73
2022/04/21 06:31:18;;;;;;;0.00;0.00;;;12.40;52.30;;;;;;4152987;28;20042;-70
2022/04/21 06:33:43;;;;;;;0.00;0.00;;;12.30;52.40;;;;;;4157163;28;20050;-72
2022/04/21 06:36:07;;;;;;;0.00;0.00;;;12.40;52.70;;;;;;4142163;28;20488;-72
2022/04/21 06:38:34;;;;;;;0.00;0.00;;;12.30;52.80;;;;;;4142549;28;20042;-71
2022/04/21 06:40:59;;;;;;;0.00;0.00;;;12.50;52.90;;;;;;4137226;28;20053;-72
2022/04/21 06:48:49;;;;;;;0.00;0.00;;;12.90;52.70;;;;;;4127876;28;20061;-70
2022/04/21 06:51:15;;;;;;;0.00;0.00;;;12.80;52.90;;;;;;4128144;28;20369;-71
2022/04/21 06:53:40;;;;;;;0.00;0.00;;;12.70;53.20;;;;;;4150682;28;20454;-73
2022/04/21 06:56:04;;;;;;;0.00;0.00;;;12.80;53.20;;;;;;4150767;28;20079;-71
2022/04/21 06:58:30;;;;;;;0.00;0.00;;;12.80;52.40;;;;;;4123419;28;20054;-72
2022/04/21 07:00:55;;;;;;;0.00;0.00;;;12.50;53.00;;;;;;4136389;28;20120;-68
2022/04/21 07:03:23;;;;;;;0.00;0.00;;;12.50;53.40;;;;;;4150869;28;20050;-70
2022/04/21 07:05:51;;;;;;;0.00;0.00;;;11.90;54.70;;;;;;4150973;28;20079;-70
2022/04/21 07:08:14;;;;;;;0.00;0.00;;;11.70;55.80;;;;;;4160521;28;20045;-70
2022/04/21 07:10:36;;;;;;;0.00;0.00;;;11.70;55.80;;;;;;4139010;28;20455;-71
2022/04/21 07:12:58;;;;;;;0.00;0.00;;;11.80;55.90;;;;;;4150302;28;20123;-69
2022/04/21 07:15:20;;;;;;;0.00;0.00;;;11.90;56.70;;;;;;4136996;28;20136;-70
2022/04/21 07:17:42;;;;;;;0.00;0.00;;;11.90;56.60;;;;;;4150237;28;20084;-70
2022/04/21 07:20:09;;;;;;;0.00;0.00;;;12.00;57.10;;;;;;4136946;28;20042;-74
2022/04/21 07:22:35;;;;;;;0.00;0.00;;;12.30;56.60;;;;;;4154853;28;20068;-72
2022/04/21 07:24:58;;;;;;;0.00;0.00;;;12.20;56.50;;;;;;4150095;28;20089;-71
2022/04/21 07:27:23;;;;;;;0.00;0.00;;;12.40;56.20;;;;;;4163950;28;20049;-70
2022/04/21 07:29:46;;;;;;;0.00;0.00;;;12.30;56.30;;;;;;4164134;28;20111;-71
2022/04/21 07:32:11;;;;;;;0.00;0.00;;;12.30;56.70;;;;;;4137334;28;20468;-70
2022/04/21 07:34:34;;;;;;;0.00;0.00;;;12.70;56.70;;;;;;4164322;28;20591;-71
2022/04/21 07:36:57;;;;;;;0.00;0.00;;;12.90;56.00;;;;;;4136511;28;20560;-71
2022/04/21 07:39:21;;;;;;;0.00;0.00;;;12.90;55.30;;;;;;4160877;28;20537;-69
2022/04/21 07:41:45;;;;;;;0.00;0.00;;;13.00;55.30;;;;;;4164141;28;20076;-71
2022/04/21 07:44:08;;;;;;;0.00;0.00;;;13.20;55.30;;;;;;4136674;28;20097;-69
2022/04/21 07:46:30;;;;;;;0.00;0.00;;;13.50;54.90;;;;;;4150137;28;20053;-69
2022/04/21 07:51:32;;;;;;;0.00;0.00;;;13.90;54.00;;;;;;4150164;28;20106;-69
2022/04/21 07:53:58;;;;;;;0.00;0.00;;;14.00;53.30;;;;;;4136797;28;20046;-67
2022/04/21 07:56:24;;;;;;;0.00;0.00;;;13.60;54.60;;;;;;4136534;28;20039;-72
2022/04/21 07:58:47;;;;;;;0.00;0.00;;;13.80;55.00;;;;;;4135961;28;20043;-70
2022/04/21 08:01:09;;;;;;;0.00;0.00;;;13.90;54.30;;;;;;4150235;28;20104;-69
2022/04/21 08:03:37;;;;;;;0.00;0.00;;;14.10;54.80;;;;;;4136525;28;20060;-71
2022/04/21 08:06:01;;;;;;;0.00;0.00;;;14.20;54.70;;;;;;4150106;28;20046;-72
2022/04/21 08:08:26;;;;;;;0.00;0.00;;;14.50;54.30;;;;;;4149997;28;20074;-72
2022/04/21 08:10:50;;;;;;;0.00;0.00;;;14.80;53.30;;;;;;4135801;28;20369;-71
2022/04/21 08:13:16;;;;;;;0.00;0.00;;;14.60;53.60;;;;;;4136444;28;20046;-71
2022/04/21 08:15:42;;;;;;;0.00;0.00;;;14.70;53.60;;;;;;4149496;28;20062;-68
2022/04/21 08:18:09;;;;;;;0.00;0.00;;;15.00;53.20;;;;;;4163663;28;20140;-71
2022/04/21 08:20:35;;;;;;;0.00;0.00;;;15.10;52.60;;;;;;4163838;28;20037;-70
2022/04/21 08:23:01;;;;;;;0.00;0.00;;;15.40;51.70;;;;;;4149511;28;20476;-69
2022/04/21 08:34:10;;;;;;;0.00;0.00;;;15.80;50.90;;;;;;4164155;28;20464;-69
2022/04/21 08:36:34;;;;;;;0.00;0.00;;;16.10;51.00;;;;;;4125776;28;20050;-70
2022/04/21 08:38:59;;;;;;;0.00;0.00;;;15.90;51.10;;;;;;4138854;28;20116;-69
2022/04/21 08:41:30;;;;;;;0.00;0.00;;;15.90;50.50;;;;;;4152765;28;20472;-69
2022/04/21 08:43:57;;;;;;;0.00;0.00;;;15.20;51.20;;;;;;4166648;28;20111;-70
2022/04/21 08:46:25;;;;;;;0.00;0.00;;;14.90;52.50;;;;;;4166493;28;20041;-70
2022/04/21 08:48:50;;;;;;;0.00;0.00;;;14.90;51.30;;;;;;4138678;28;20050;-67
2022/04/21 08:51:13;;;;;;;0.00;0.00;;;14.40;52.40;;;;;;4152475;28;20049;-67
2022/04/21 08:53:38;;;;;;;0.00;0.00;;;14.80;52.90;;;;;;4166293;28;20137;-68
2022/04/21 08:56:03;;;;;;;0.00;0.00;;;15.00;51.70;;;;;;4138940;28;20046;-67
2022/04/21 08:58:32;;;;;;;0.00;0.00;;;15.20;52.20;;;;;;4153675;28;20069;-71
2022/04/21 09:00:57;;;;;;;0.00;0.00;;;15.00;52.00;;;;;;4151987;28;20092;-69
2022/04/21 09:03:19;;;;;;;0.00;0.00;;;14.70;52.80;;;;;;4152510;28;20093;-71
2022/04/21 09:05:44;;;;;;;0.00;0.00;;;15.10;52.70;;;;;;4139024;28;20612;-70
2022/04/21 09:08:34;;;;;;;0.00;0.00;;;15.40;51.40;;;;;;4166087;28;20427;-72
2022/04/21 09:11:07;;;;;;;0.00;0.00;;;15.20;51.90;;;;;;4165786;28;20483;-68
2022/04/21 09:13:44;;;;;;;0.00;0.00;;;15.40;51.60;;;;;;4146958;28;20089;-71
2022/04/21 09:16:10;;;;;;;0.00;0.00;;;15.40;50.90;;;;;;4136027;28;20125;-70
2022/04/21 09:18:48;;;;;;;0.00;0.00;;;14.50;51.80;;;;;;4135692;28;20093;-68
2022/04/21 09:21:17;;;;;;;0.00;0.00;;;14.50;53.00;;;;;;4135628;28;20050;-73
2022/04/21 09:23:39;;;;;;;0.00;0.00;;;14.70;53.10;;;;;;4122449;28;20113;-70
2022/04/21 09:26:30;;;;;;;0.00;0.00;;;15.20;52.50;;;;;;4122391;28;20058;-71
2022/04/21 09:28:57;;;;;;;0.00;0.00;;;15.70;51.80;;;;;;4135505;28;20058;-70
2022/04/21 09:31:19;;;;;;;0.00;0.00;;;15.80;51.90;;;;;;4122446;28;20054;-70
2022/04/21 09:33:41;;;;;;;0.00;0.00;;;16.10;51.20;;;;;;4135658;28;20105;-67
2022/04/21 09:36:10;;;;;;;0.00;0.00;;;16.40;50.80;;;;;;4135989;28;20116;-68
2022/04/21 09:38:34;;;;;;;0.00;0.00;;;16.40;50.70;;;;;;4135921;28;20157;-71
2022/04/21 09:41:03;;;;;;;0.00;0.00;;;16.30;50.60;;;;;;4135393;28;20050;-70
2022/04/21 09:43:33;;;;;;;0.00;0.00;;;15.70;49.80;;;;;;4121973;28;20047;-68
2022/04/21 09:46:32;;;;;;;0.00;0.00;;;15.10;51.50;;;;;;4108020;28;20441;-70
2022/04/21 09:48:57;;;;;;;0.00;0.00;;;15.30;52.00;;;;;;4121960;28;20085;-71
2022/04/21 09:51:24;;;;;;;0.00;0.00;;;15.20;52.10;;;;;;4135578;28;20086;-70
2022/04/21 09:53:53;;;;;;;0.00;0.00;;;15.20;51.60;;;;;;4135377;28;20082;-70
2022/04/21 09:56:27;;;;;;;0.00;0.00;;;15.10;51.50;;;;;;4135411;28;20145;-69
2022/04/21 09:58:49;;;;;;;0.00;0.00;;;15.30;51.80;;;;;;4134840;28;20082;-68
2022/04/21 10:01:12;;;;;;;0.00;0.00;;;15.40;51.60;;;;;;4135229;28;20106;-68
2022/04/21 10:03:36;;;;;;;0.00;0.00;;;15.50;51.90;;;;;;4122014;28;20426;-71
2022/04/21 10:05:59;;;;;;;0.00;0.00;;;15.70;51.70;;;;;;4121767;28;20051;-69
2022/04/21 10:08:23;;;;;;;0.00;0.00;;;15.50;51.80;;;;;;4135180;28;20536;-69
2022/04/21 10:10:51;;;;;;;0.00;0.00;;;15.40;52.40;;;;;;4121192;28;20082;-72
2022/04/21 10:13:16;;;;;;;0.00;0.00;;;15.40;52.50;;;;;;4139091;28;20060;-70
2022/04/21 10:15:38;;;;;;;0.00;0.00;;;15.40;53.60;;;;;;4165211;28;20491;-69
2022/04/21 10:18:00;;;;;;;0.00;0.00;;;15.60;54.00;;;;;;4164739;28;20045;-69
2022/04/21 10:20:31;;;;;;;0.00;0.00;;;15.80;52.90;;;;;;4164990;28;20092;-71
2022/04/21 10:22:56;;;;;;;0.00;0.00;;;16.10;52.60;;;;;;4150866;28;20144;-70
2022/04/21 10:25:38;;;;;;;0.00;0.00;;;16.00;52.30;;;;;;4164741;28;20152;-71
2022/04/21 10:28:00;;;;;;;0.00;0.00;;;16.10;53.10;;;;;;4154133;28;20073;-72
2022/04/21 10:30:31;;;;;;;0.00;0.00;;;16.30;52.30;;;;;;4168664;28;20046;-69
2022/04/21 10:32:56;;;;;;;0.00;0.00;;;16.60;51.20;;;;;;4124811;28;20054;-73
2022/04/21 10:35:18;;;;;;;0.00;0.00;;;16.80;51.40;;;;;;4164999;28;20049;-69
2022/04/21 10:37:40;;;;;;;0.00;0.00;;;16.80;51.00;;;;;;4164887;28;20460;-70
2022/04/21 10:40:04;;;;;;;0.00;0.00;;;16.50;50.80;;;;;;4151163;28;20047;-71
2022/04/21 10:42:32;;;;;;;0.00;0.00;;;16.60;51.40;;;;;;4151044;28;20038;-69
2022/04/21 10:44:58;;;;;;;0.00;0.00;;;16.80;51.70;;;;;;4164104;28;20041;-68
2022/04/21 10:47:37;;;;;;;0.00;0.00;;;17.10;51.30;;;;;;4164709;28;20483;-69
2022/04/21 10:50:00;;;;;;;0.00;0.00;;;17.30;51.20;;;;;;4164414;28;20479;-67
2022/04/21 10:58:36;;;;;;;0.00;0.00;;;17.60;50.30;;;;;;4164598;28;20096;-68
2022/04/21 11:01:08;;;;;;;0.00;0.00;;;17.70;50.50;;;;;;4180012;28;20061;-70
2022/04/21 11:03:33;;;;;;;0.00;0.00;;;17.80;50.30;;;;;;4168993;28;20041;-68
2022/04/21 11:06:04;;;;;;;0.00;0.00;;;18.00;50.60;;;;;;4167041;28;20103;-70
2022/04/21 11:08:31;;;;;;;0.00;0.00;;;18.30;50.70;;;;;;4167051;28;20076;-68
2022/04/21 11:10:55;;;;;;;0.00;0.00;;;18.20;50.60;;;;;;4166555;28;20065;-70
2022/04/21 11:13:51;;;;;;;0.00;0.00;;;18.30;52.00;;;;;;4154590;28;20144;-70
2022/04/21 11:16:47;;;;;;;0.00;0.00;;;18.30;51.00;;;;;;4153601;28;20056;-70
2022/04/21 11:19:28;;;;;;;0.00;0.00;;;18.50;50.30;;;;;;4166629;28;20068;-69
2022/04/21 11:21:53;;;;;;;0.00;0.00;;;18.30;51.80;;;;;;4166765;28;20053;-68
2022/04/21 11:24:15;;;;;;;0.00;0.00;;;18.00;51.00;;;;;;4153200;28;20092;-71
2022/04/21 11:26:37;;;;;;;0.00;0.00;;;18.10;52.10;;;;;;4166856;28;20219;-72
2022/04/21 11:29:07;;;;;;;0.00;0.00;;;18.30;52.30;;;;;;4139168;28;20049;-70
2022/04/21 11:31:29;;;;;;;0.00;0.00;;;18.70;51.20;;;;;;4166751;28;20068;-70
2022/04/21 11:33:53;;;;;;;0.00;0.00;;;19.00;50.60;;;;;;4166728;28;20045;-69
2022/04/21 11:36:16;;;;;;;0.00;0.00;;;19.30;49.60;;;;;;4167325;28;20046;-68
2022/04/21 11:38:45;;;;;;;0.00;0.00;;;19.40;49.40;;;;;;4166493;28;20035;-68
2022/04/21 11:41:12;;;;;;;0.00;0.00;;;19.60;49.00;;;;;;4166580;28;20041;-69
2022/04/21 11:43:35;;;;;;;0.00;0.00;;;19.70;47.70;;;;;;4180674;28;20068;-67
2022/04/21 11:46:04;;;;;;;0.00;0.00;;;19.90;46.90;;;;;;4166824;28;20053;-70
2022/04/21 11:48:30;;;;;;;0.00;0.00;;;19.90;46.90;;;;;;4166507;28;20075;-69
2022/04/21 11:50:53;;;;;;;0.00;0.00;;;19.80;47.10;;;;;;4166118;28;20439;-69
2022/04/21 11:53:20;;;;;;;0.00;0.00;;;20.00;46.70;;;;;;4166558;28;20476;-69
2022/04/21 11:55:42;;;;;;;0.00;0.00;;;19.60;46.80;;;;;;4166464;28;20049;-68
2022/04/21 11:58:07;;;;;;;0.00;0.00;;;19.60;46.20;;;;;;4166613;28;20045;-68
2022/04/21 12:08:44;;;;;;;0.00;0.00;;;19.30;46.40;;;;;;4166488;28;20111;-67
2022/04/21 12:11:09;;;;;;;0.00;0.00;;;19.30;45.40;;;;;;4155547;28;20053;-69
2022/04/21 12:13:31;;;;;;;0.00;0.00;;;19.10;45.70;;;;;;4155861;28;20053;-69
2022/04/21 12:15:54;;;;;;;0.00;0.00;;;19.20;46.00;;;;;;4169796;28;20042;-72
2022/04/21 12:18:15;;;;;;;0.00;0.00;;;19.20;45.40;;;;;;4169506;28;20049;-68
2022/04/21 12:20:56;;;;;;;0.00;0.00;;;19.00;45.40;;;;;;4169446;28;20310;-70
2022/04/21 12:23:23;;;;;;;0.00;0.00;;;19.10;46.00;;;;;;4169275;28;20069;-69
2022/04/21 12:25:48;;;;;;;0.00;0.00;;;19.30;46.20;;;;;;4169348;28;20046;-70
2022/04/21 12:28:14;;;;;;;0.00;0.00;;;19.50;45.80;;;;;;4155907;28;20155;-68
2022/04/21 12:30:41;;;;;;;0.00;0.00;;;19.60;45.40;;;;;;4155712;28;20056;-68
2022/04/21 12:33:06;;;;;;;0.00;0.00;;;19.70;45.50;;;;;;4155752;28;20045;-70
2022/04/21 12:35:49;;;;;;;0.00;0.00;;;19.40;45.20;;;;;;4169262;28;20056;-68
2022/04/21 12:41:02;;;;;;;0.00;0.00;;;19.00;46.60;;;;;;4160440;28;20068;-70
2022/04/21 12:43:28;;;;;;;0.00;0.00;;;19.00;47.10;;;;;;4171823;28;20111;-67
2022/04/21 12:45:51;;;;;;;0.00;0.00;;;19.20;46.70;;;;;;4185971;28;20106;-68
2022/04/21 12:48:27;;;;;;;0.00;0.00;;;19.20;46.70;;;;;;4186642;28;20136;-69
2022/04/21 12:50:52;;;;;;;0.00;0.00;;;19.40;47.30;;;;;;4171470;28;20051;-68
2022/04/21 12:53:25;;;;;;;0.00;0.00;;;19.40;46.10;;;;;;4185353;28;20128;-71
2022/04/21 12:55:47;;;;;;;0.00;0.00;;;19.20;46.30;;;;;;4185451;28;20433;-68
2022/04/21 12:58:13;;;;;;;0.00;0.00;;;19.30;46.50;;;;;;4185291;28;20080;-67
2022/04/21 13:00:37;;;;;;;0.00;0.00;;;19.30;46.20;;;;;;4185121;28;20052;-70
2022/04/21 13:03:03;;;;;;;0.00;0.00;;;19.40;46.20;;;;;;4184986;28;20515;-70
2022/04/21 13:05:29;;;;;;;0.00;0.00;;;19.40;46.00;;;;;;4157079;28;20065;-70
2022/04/21 13:07:56;;;;;;;0.00;0.00;;;19.30;48.10;;;;;;4154324;28;20050;-68
2022/04/21 13:10:23;;;;;;;0.00;0.00;;;19.10;48.40;;;;;;4155482;28;20061;-70
2022/04/21 13:12:45;;;;;;;0.00;0.00;;;19.30;49.50;;;;;;4154993;28;20050;-70
2022/04/21 13:15:12;;;;;;;0.00;0.00;;;19.30;50.00;;;;;;4126070;28;20079;-69
2022/04/21 13:17:34;;;;;;;0.00;0.00;;;19.30;49.60;;;;;;4138467;28;20039;-68
2022/04/21 13:20:01;;;;;;;0.00;0.00;;;19.40;48.20;;;;;;4138898;28;20492;-66
2022/04/21 13:22:23;;;;;;;0.00;0.00;;;19.20;48.40;;;;;;4137874;28;20062;-69
2022/04/21 13:24:47;;;;;;;0.00;0.00;;;19.00;47.70;;;;;;4138068;28;20382;-69
2022/04/21 13:27:09;;;;;;;0.00;0.00;;;18.80;48.00;;;;;;4152109;28;20065;-70
2022/04/21 13:29:33;;;;;;;0.00;0.00;;;18.90;48.30;;;;;;4111949;28;20078;-69
2022/04/21 13:34:36;;;;;;;0.00;0.00;;;19.10;48.30;;;;;;4152067;28;20100;-68
2022/04/21 13:36:59;;;;;;;0.00;0.00;;;19.00;48.40;;;;;;4138192;28;20046;-71